createdAt,value
2022-10-11T00:01:19.883Z,101551.09
2022-10-11T00:03:46.380Z,101550.47
2022-10-11T00:06:12.827Z,101555.38
2022-10-11T00:08:39.318Z,101553.34
2022-10-11T00:11:07.216Z,101562.16
2022-10-11T00:13:34.324Z,101552.50
2022-10-11T00:16:01.599Z,101567.31
2022-10-11T00:18:28.224Z,101562.78
2022-10-11T00:21:02.450Z,101566.47
2022-10-11T00:23:28.926Z,101558.88
2022-10-11T00:26:04.634Z,101558.47
2022-10-11T00:28:33.773Z,101555.22
2022-10-11T00:31:00.761Z,101559.72
2022-10-11T00:33:27.425Z,101561.34
2022-10-11T00:35:53.907Z,101556.63
2022-10-11T00:38:20.518Z,101554.16
2022-10-11T00:40:47.007Z,101552.72
2022-10-11T00:43:19.329Z,101548.22
2022-10-11T00:45:57.805Z,101555.78
2022-10-11T00:48:31.351Z,101554.97
2022-10-11T00:51:01.465Z,101550.06
2022-10-11T00:53:30.483Z,101546.94
2022-10-11T00:56:04.766Z,101543.06
2022-10-11T00:58:35.023Z,101542.25
2022-10-11T01:01:02.297Z,101542.84
2022-10-11T01:03:31.316Z,101536.69
2022-10-11T01:05:57.948Z,101539.97
2022-10-11T01:08:25.494Z,101537.13
2022-10-11T01:10:52.137Z,101540.00
2022-10-11T01:13:44.420Z,101541.44
2022-10-11T01:16:31.839Z,101538.34
2022-10-11T01:19:37.103Z,101534.69
2022-10-11T01:22:17.658Z,101539.00
2022-10-11T01:24:47.004Z,101539.59
2022-10-11T01:27:25.615Z,101544.72
2022-10-11T01:29:58.135Z,101535.28
2022-10-11T01:32:37.172Z,101535.69
2022-10-11T01:35:16.226Z,101531.59
2022-10-11T01:37:53.122Z,101532.63
2022-10-11T01:40:33.403Z,101530.97
2022-10-11T01:43:01.722Z,101534.06
2022-10-11T01:45:28.292Z,101529.72
2022-10-11T01:48:02.472Z,101519.66
2022-10-11T01:50:51.459Z,101525.81
2022-10-11T01:53:55.665Z,101521.13
2022-10-11T01:56:37.322Z,101518.44
2022-10-11T01:59:20.770Z,101516.19
2022-10-11T02:02:13.079Z,101512.91
2022-10-11T02:05:03.723Z,101516.00
2022-10-11T02:07:51.717Z,101517.84
2022-10-11T02:10:42.457Z,101516.56
2022-10-11T02:13:34.168Z,101514.13
2022-10-11T02:16:03.910Z,101513.72
2022-10-11T02:18:36.139Z,101517.19
2022-10-11T02:21:05.359Z,101514.34
2022-10-11T02:23:36.799Z,101512.50
2022-10-11T02:26:06.573Z,101508.19
2022-10-11T02:28:36.751Z,101508.59
2022-10-11T02:31:07.194Z,101501.81
2022-10-11T02:33:40.478Z,101502.84
2022-10-11T02:36:21.915Z,101497.50
2022-10-11T02:38:53.706Z,101494.66
2022-10-11T02:41:23.422Z,101495.25
2022-10-11T02:43:57.605Z,101504.88
2022-10-11T02:46:26.376Z,101499.56
2022-10-11T02:48:53.934Z,101500.56
2022-10-11T02:51:20.520Z,101501.63
2022-10-11T02:53:46.982Z,101505.09
2022-10-11T02:56:13.528Z,101500.59
2022-10-11T02:58:39.987Z,101500.19
2022-10-11T03:01:06.500Z,101503.63
2022-10-11T03:03:32.987Z,101498.53
2022-10-11T03:06:01.891Z,101499.13
2022-10-11T03:08:28.859Z,101502.59
2022-10-11T03:10:55.413Z,101498.06
2022-10-11T03:13:21.950Z,101499.88
2022-10-11T03:16:00.701Z,101494.56
2022-10-11T03:18:29.884Z,101497.84
2022-10-11T03:20:56.454Z,101498.44
2022-10-11T03:23:23.377Z,101493.09
2022-10-11T03:25:51.903Z,101490.03
2022-10-11T03:28:18.778Z,101492.56
2022-10-11T03:30:48.208Z,101499.94
2022-10-11T03:33:15.043Z,101498.91
2022-10-11T03:35:44.849Z,101500.72
2022-10-11T03:38:17.093Z,101505.22
2022-10-11T03:40:43.946Z,101506.25
2022-10-11T03:43:11.111Z,101506.09
2022-10-11T03:45:38.288Z,101502.22
2022-10-11T03:48:05.144Z,101502.59
2022-10-11T03:50:31.727Z,101505.91
2022-10-11T03:52:58.309Z,101514.31
2022-10-11T03:55:24.824Z,101508.81
2022-10-11T03:57:51.370Z,101516.38
2022-10-11T04:00:17.991Z,101518.22
2022-10-11T04:02:44.541Z,101517.38
2022-10-11T04:05:12.633Z,101529.06
2022-10-11T04:07:40.471Z,101523.25
2022-10-11T04:10:07.675Z,101525.00
2022-10-11T04:12:34.866Z,101521.69
2022-10-11T04:15:01.294Z,101519.00
2022-10-11T04:17:27.939Z,101526.16
2022-10-11T04:19:54.384Z,101518.94
2022-10-11T04:22:20.895Z,101522.44
2022-10-11T04:24:47.488Z,101521.19
2022-10-11T04:27:13.966Z,101525.88
2022-10-11T04:29:40.531Z,101519.94
2022-10-11T04:32:07.179Z,101516.63
2022-10-11T04:34:33.735Z,101516.63
2022-10-11T04:37:00.251Z,101520.31
2022-10-11T04:39:26.679Z,101517.22
2022-10-11T04:41:53.160Z,101519.03
2022-10-11T04:44:19.651Z,101521.72
2022-10-11T04:46:46.198Z,101522.13
2022-10-11T04:49:12.693Z,101518.03
2022-10-11T04:51:39.149Z,101525.41
2022-10-11T04:54:05.812Z,101521.53
2022-10-11T04:56:32.305Z,101523.78
2022-10-11T04:58:58.819Z,101521.47
2022-10-11T05:01:25.254Z,101524.72
2022-10-11T05:03:51.770Z,101524.69
2022-10-11T05:06:18.307Z,101516.09
2022-10-11T05:08:44.745Z,101514.03
2022-10-11T05:11:16.615Z,101525.50
2022-10-11T05:13:43.803Z,101521.16
2022-10-11T05:16:11.316Z,101520.41
2022-10-11T05:18:39.091Z,101519.19
2022-10-11T05:21:14.290Z,101524.28
2022-10-11T05:23:40.999Z,101528.19
2022-10-11T05:26:08.189Z,101525.09
2022-10-11T05:28:34.962Z,101528.94
2022-10-11T05:31:01.499Z,101532.88
2022-10-11T05:33:27.987Z,101536.38
2022-10-11T05:35:54.663Z,101533.53
2022-10-11T05:38:21.626Z,101538.22
2022-10-11T05:40:51.363Z,101539.44
2022-10-11T05:43:18.209Z,101551.38
2022-10-11T05:45:47.823Z,101549.69
2022-10-11T05:48:16.933Z,101553.19
2022-10-11T05:50:43.460Z,101562.00
2022-10-11T05:53:09.953Z,101561.59
2022-10-11T05:55:46.392Z,101562.56
2022-10-11T05:58:22.680Z,101561.41
2022-10-11T06:00:52.372Z,101567.56
2022-10-11T06:03:21.005Z,101568.97
2022-10-11T06:05:47.544Z,101573.88
2022-10-11T06:08:14.866Z,101572.25
2022-10-11T06:10:41.922Z,101569.16
2022-10-11T06:13:09.493Z,101572.31
2022-10-11T06:15:38.944Z,101575.81
2022-10-11T06:18:05.495Z,101578.88
2022-10-11T06:20:32.005Z,101577.66
2022-10-11T06:22:59.144Z,101584.03
2022-10-11T06:25:25.607Z,101581.19
2022-10-11T06:27:52.048Z,101583.88
2022-10-11T06:30:18.690Z,101587.75
2022-10-11T06:32:45.098Z,101582.25
2022-10-11T06:35:11.854Z,101595.59
2022-10-11T06:37:38.378Z,101588.63
2022-10-11T06:40:05.299Z,101593.56
2022-10-11T06:42:31.795Z,101597.84
2022-10-11T06:44:58.259Z,101596.22
2022-10-11T06:47:24.779Z,101602.59
2022-10-11T06:49:51.302Z,101600.13
2022-10-11T06:52:17.763Z,101598.91
2022-10-11T06:54:45.402Z,101605.09
2022-10-11T06:57:12.178Z,101599.34
2022-10-11T06:59:38.628Z,101602.78
2022-10-11T07:02:05.087Z,101606.31
2022-10-11T07:04:33.735Z,101602.22
2022-10-11T07:07:00.201Z,101604.84
2022-10-11T07:09:26.719Z,101604.13
2022-10-11T07:11:53.244Z,101608.22
2022-10-11T07:14:19.682Z,101606.41
2022-10-11T07:16:46.096Z,101610.06
2022-10-11T07:19:12.618Z,101605.31
2022-10-11T07:21:39.135Z,101598.13
2022-10-11T07:24:06.124Z,101613.09
2022-10-11T07:26:38.151Z,101611.25
2022-10-11T07:29:06.806Z,101613.63
2022-10-11T07:31:33.336Z,101610.97
2022-10-11T07:33:59.787Z,101616.03
2022-10-11T07:36:26.279Z,101623.16
2022-10-11T07:38:52.995Z,101622.59
2022-10-11T07:41:20.442Z,101622.84
2022-10-11T07:43:49.488Z,101623.06
2022-10-11T07:46:17.194Z,101626.84
2022-10-11T07:48:43.706Z,101626.75
2022-10-11T07:51:13.458Z,101629.09
2022-10-11T07:53:41.608Z,101634.50
2022-10-11T07:56:10.196Z,101634.00
2022-10-11T07:58:36.700Z,101633.09
2022-10-11T08:01:03.453Z,101626.63
2022-10-11T08:03:30.330Z,101626.50
2022-10-11T08:06:05.368Z,101617.91
2022-10-11T08:08:32.198Z,101624.94
2022-10-11T08:10:59.385Z,101624.63
2022-10-11T08:13:26.225Z,101623.78
2022-10-11T08:15:52.835Z,101621.06
2022-10-11T08:18:19.782Z,101629.97
2022-10-11T08:20:46.377Z,101623.75
2022-10-11T08:23:13.067Z,101628.91
2022-10-11T08:25:42.514Z,101620.56
2022-10-11T08:28:10.201Z,101622.94
2022-10-11T08:30:36.890Z,101624.91
2022-10-11T08:33:08.258Z,101623.13
2022-10-11T08:35:36.262Z,101634.03
2022-10-11T08:38:02.898Z,101628.41
2022-10-11T08:40:34.280Z,101628.56
2022-10-11T08:43:08.255Z,101634.06
2022-10-11T08:45:50.851Z,101630.59
2022-10-11T08:48:19.065Z,101631.06
2022-10-11T08:50:50.086Z,101630.06
2022-10-11T08:53:27.226Z,101629.03
2022-10-11T08:55:55.075Z,101631.88
2022-10-11T08:58:33.370Z,101629.91
2022-10-11T09:01:01.530Z,101627.41
2022-10-11T09:03:41.193Z,101626.19
2022-10-11T09:06:32.579Z,101624.16
2022-10-11T09:09:06.906Z,101632.00
2022-10-11T09:12:12.211Z,101626.06
2022-10-11T09:14:58.295Z,101630.00
2022-10-11T09:17:49.509Z,101633.34
2022-10-11T09:20:53.156Z,101635.47
2022-10-11T09:23:54.455Z,101623.78
2022-10-11T09:26:52.929Z,101626.09
2022-10-11T09:29:51.088Z,101621.94
2022-10-11T09:32:21.034Z,101619.75
2022-10-11T09:35:09.202Z,101621.69
2022-10-11T09:37:45.728Z,101624.38
2022-10-11T09:40:36.266Z,101624.38
2022-10-11T09:43:02.787Z,101617.06
2022-10-11T09:45:29.299Z,101616.47
2022-10-11T09:47:59.630Z,101619.22
2022-10-11T09:50:29.701Z,101611.72
2022-10-11T09:53:04.796Z,101624.59
2022-10-11T09:55:50.753Z,101611.56
2022-10-11T09:58:35.981Z,101614.84
2022-10-11T10:01:07.896Z,101609.56
2022-10-11T10:03:43.486Z,101612.31
2022-10-11T10:06:17.262Z,101614.72
2022-10-11T10:08:46.830Z,101610.66
2022-10-11T10:11:14.437Z,101616.59
2022-10-11T10:13:43.435Z,101618.25
2022-10-11T10:16:33.693Z,101620.97
2022-10-11T10:19:16.596Z,101623.63
2022-10-11T10:21:49.234Z,101617.97
2022-10-11T10:24:38.223Z,101619.28
2022-10-11T10:27:11.109Z,101620.84
2022-10-11T10:29:37.914Z,101612.03
2022-10-11T10:32:28.221Z,101623.31
2022-10-11T10:35:27.340Z,101618.31
2022-10-11T10:37:59.712Z,101616.13
2022-10-11T10:40:37.730Z,101623.97
2022-10-11T10:43:04.189Z,101618.00
2022-10-11T10:45:53.721Z,101617.38
2022-10-11T10:48:41.751Z,101610.78
2022-10-11T10:51:31.950Z,101613.78
2022-10-11T10:54:29.793Z,101617.81
2022-10-11T10:57:00.023Z,101611.81
2022-10-11T10:59:44.730Z,101599.50
2022-10-11T11:02:39.552Z,101607.28
2022-10-11T11:05:11.856Z,101608.28
2022-10-11T11:08:13.251Z,101609.53
2022-10-11T11:10:51.470Z,101618.53
2022-10-11T11:13:19.608Z,101609.44
2022-10-11T11:16:17.472Z,101605.91
2022-10-11T11:18:55.774Z,101606.00
2022-10-11T11:21:43.964Z,101588.34
2022-10-11T11:24:18.407Z,101601.59
2022-10-11T11:26:54.602Z,101597.97
2022-10-11T11:30:03.332Z,101591.34
2022-10-11T11:32:48.061Z,101599.50
2022-10-11T11:35:37.934Z,101605.25
2022-10-11T11:38:14.198Z,101588.91
2022-10-11T11:40:45.467Z,101589.28
2022-10-11T11:43:21.002Z,101591.28
2022-10-11T11:46:13.073Z,101587.66
2022-10-11T11:48:40.222Z,101583.53
2022-10-11T11:51:14.985Z,101584.81
2022-10-11T11:53:53.536Z,101578.50
2022-10-11T11:56:34.293Z,101576.53
2022-10-11T11:59:46.462Z,101571.41
2022-10-11T12:02:19.987Z,101573.75
2022-10-11T12:04:48.443Z,101581.00
2022-10-11T12:07:18.236Z,101582.41
2022-10-11T12:09:50.524Z,101580.19
2022-10-11T12:12:37.924Z,101580.53
2022-10-11T12:15:26.151Z,101567.69
2022-10-11T12:17:58.478Z,101566.84
2022-10-11T12:20:26.446Z,101559.50
2022-10-11T12:23:01.503Z,101564.50
2022-10-11T12:25:28.661Z,101555.88
2022-10-11T12:28:01.353Z,101555.53
2022-10-11T12:30:50.820Z,101560.53
2022-10-11T12:33:21.415Z,101562.41
2022-10-11T12:36:05.668Z,101556.69
2022-10-11T12:38:37.878Z,101551.31
2022-10-11T12:41:10.068Z,101543.13
2022-10-11T12:44:15.044Z,101553.41
2022-10-11T12:47:30.891Z,101549.91
2022-10-11T12:50:03.369Z,101552.75
2022-10-11T12:52:48.503Z,101537.16
2022-10-11T12:56:05.329Z,101538.97
2022-10-11T12:58:38.724Z,101542.03
2022-10-11T13:01:17.503Z,101537.75
2022-10-11T13:03:46.999Z,101540.22
2022-10-11T13:06:26.559Z,101549.91
2022-10-11T13:09:07.177Z,101551.22
2022-10-11T13:11:38.734Z,101547.09
2022-10-11T13:14:16.000Z,101546.06
2022-10-11T13:16:58.368Z,101544.78
2022-10-11T13:19:25.039Z,101539.75
2022-10-11T13:21:56.290Z,101529.47
2022-10-11T13:24:24.222Z,101527.72
2022-10-11T13:26:54.432Z,101533.44
2022-10-11T13:29:40.602Z,101532.88
2022-10-11T13:32:20.484Z,101536.13
2022-10-11T13:34:50.159Z,101529.38
2022-10-11T13:37:19.556Z,101531.56
2022-10-11T13:39:48.870Z,101532.66
2022-10-11T13:42:17.467Z,101527.84
2022-10-11T13:44:46.878Z,101525.16
2022-10-11T13:47:17.003Z,101529.25
2022-10-11T13:49:53.420Z,101522.69
2022-10-11T13:52:21.700Z,101519.31
2022-10-11T13:54:57.970Z,101514.97
2022-10-11T13:57:44.264Z,101515.94
2022-10-11T14:00:26.649Z,101506.34
2022-10-11T14:03:14.719Z,101508.56
2022-10-11T14:05:53.595Z,101507.97
2022-10-11T14:08:42.809Z,101508.19
2022-10-11T14:11:11.935Z,101506.69
2022-10-11T14:13:40.670Z,101511.13
2022-10-11T14:16:09.245Z,101504.13
2022-10-11T14:18:47.159Z,101500.88
2022-10-11T14:21:19.512Z,101499.34
2022-10-11T14:24:17.775Z,101497.47
2022-10-11T14:26:46.848Z,101497.63
2022-10-11T14:29:17.447Z,101489.53
2022-10-11T14:31:44.000Z,101488.44
2022-10-11T14:34:20.085Z,101487.44
2022-10-11T14:36:47.563Z,101490.38
2022-10-11T14:39:19.381Z,101486.50
2022-10-11T14:41:46.328Z,101487.38
2022-10-11T14:44:13.969Z,101489.41
2022-10-11T14:46:41.327Z,101484.63
2022-10-11T14:49:16.036Z,101491.50
2022-10-11T14:51:44.552Z,101484.00
2022-10-11T14:54:11.436Z,101483.47
2022-10-11T14:56:38.222Z,101489.28
2022-10-11T14:59:04.767Z,101495.38
2022-10-11T15:01:31.508Z,101491.63
2022-10-11T15:03:58.056Z,101494.66
2022-10-11T15:06:28.723Z,101493.25
2022-10-11T15:08:55.351Z,101493.50
2022-10-11T15:11:22.790Z,101494.56
2022-10-11T15:13:49.959Z,101490.47
2022-10-11T15:16:19.663Z,101489.44
2022-10-11T15:18:53.243Z,101488.47
2022-10-11T15:21:25.140Z,101485.56
2022-10-11T15:23:53.613Z,101487.22
2022-10-11T15:26:26.170Z,101486.16
2022-10-11T15:28:55.177Z,101484.88
2022-10-11T15:31:22.676Z,101490.25
2022-10-11T15:33:49.920Z,101482.19
2022-10-11T15:36:19.083Z,101489.03
2022-10-11T15:38:46.016Z,101494.03
2022-10-11T15:41:14.722Z,101492.00
2022-10-11T15:43:43.087Z,101496.44
2022-10-11T15:46:14.601Z,101489.66
2022-10-11T15:48:41.127Z,101492.00
2022-10-11T15:51:07.616Z,101491.72
2022-10-11T15:53:34.124Z,101492.47
2022-10-11T15:56:06.415Z,101485.22
2022-10-11T15:58:36.238Z,101491.16
2022-10-11T16:01:18.111Z,101493.97
2022-10-11T16:03:44.754Z,101486.38
2022-10-11T16:06:11.732Z,101484.63
2022-10-11T16:08:38.650Z,101487.31
2022-10-11T16:11:07.775Z,101482.88
2022-10-11T16:13:35.543Z,101481.34
2022-10-11T16:16:05.118Z,101483.53
2022-10-11T16:18:35.367Z,101483.66
2022-10-11T16:21:06.946Z,101482.25
2022-10-11T16:23:33.916Z,101482.47
2022-10-11T16:26:05.703Z,101480.81
2022-10-11T16:28:33.018Z,101481.16
2022-10-11T16:30:59.773Z,101479.28
2022-10-11T16:33:26.896Z,101474.91
2022-10-11T16:35:53.997Z,101482.16
2022-10-11T16:38:20.490Z,101480.59
2022-10-11T16:40:47.184Z,101486.66
2022-10-11T16:43:13.731Z,101489.88
2022-10-11T16:45:40.253Z,101490.09
2022-10-11T16:48:06.750Z,101486.47
2022-10-11T16:50:39.092Z,101484.69
2022-10-11T16:53:06.004Z,101490.34
2022-10-11T16:55:32.670Z,101497.44
2022-10-11T16:57:59.102Z,101495.19
2022-10-11T17:00:25.688Z,101496.09
2022-10-11T17:02:52.285Z,101503.09
2022-10-11T17:05:18.770Z,101495.13
2022-10-11T17:07:45.287Z,101504.00
2022-10-11T17:10:11.806Z,101496.91
2022-10-11T17:12:38.721Z,101490.88
2022-10-11T17:15:06.238Z,101499.97
2022-10-11T17:17:32.699Z,101510.09
2022-10-11T17:19:59.183Z,101504.16
2022-10-11T17:22:25.964Z,101503.38
2022-10-11T17:24:52.533Z,101505.88
2022-10-11T17:27:19.064Z,101503.75
2022-10-11T17:29:45.542Z,101506.50
2022-10-11T17:32:12.003Z,101509.63
2022-10-11T17:34:38.509Z,101510.06
2022-10-11T17:37:05.065Z,101514.00
2022-10-11T17:39:31.592Z,101510.91
2022-10-11T17:41:58.158Z,101520.78
2022-10-11T17:44:24.670Z,101515.06
2022-10-11T17:46:51.135Z,101523.31
2022-10-11T17:49:17.835Z,101522.56
2022-10-11T17:51:44.605Z,101521.13
2022-10-11T17:54:12.934Z,101525.06
2022-10-11T17:56:41.660Z,101526.94
2022-10-11T17:59:14.320Z,101521.63
2022-10-11T18:01:40.975Z,101528.63
2022-10-11T18:04:07.740Z,101527.25
2022-10-11T18:06:39.075Z,101534.09
2022-10-11T18:09:05.995Z,101532.91
2022-10-11T18:11:33.043Z,101531.25
2022-10-11T18:13:59.781Z,101538.00
2022-10-11T18:16:29.259Z,101532.50
2022-10-11T18:18:57.398Z,101526.53
2022-10-11T18:21:28.756Z,101533.56
2022-10-11T18:24:01.812Z,101536.41
2022-10-11T18:26:30.603Z,101533.13
2022-10-11T18:28:58.427Z,101526.56
2022-10-11T18:31:28.123Z,101523.75
2022-10-11T18:33:55.130Z,101525.97
2022-10-11T18:36:24.706Z,101525.19
2022-10-11T18:38:56.539Z,101531.00
2022-10-11T18:41:24.295Z,101531.25
2022-10-11T18:43:53.059Z,101529.38
2022-10-11T18:46:20.280Z,101523.22
2022-10-11T18:48:49.274Z,101525.50
2022-10-11T18:51:25.375Z,101536.19
2022-10-11T18:53:52.574Z,101531.25
2022-10-11T18:56:21.297Z,101540.81
2022-10-11T18:58:49.603Z,101538.28
2022-10-11T19:01:25.108Z,101533.50
2022-10-11T19:03:56.403Z,101534.97
2022-10-11T19:06:28.982Z,101535.84
2022-10-11T19:09:00.280Z,101550.69
2022-10-11T19:11:26.829Z,101546.19
2022-10-11T19:13:58.275Z,101543.97
2022-10-11T19:16:26.384Z,101548.44
2022-10-11T19:18:53.551Z,101547.22
2022-10-11T19:21:20.132Z,101550.94
2022-10-11T19:23:48.010Z,101547.44
2022-10-11T19:26:30.047Z,101552.41
2022-10-11T19:28:58.200Z,101549.97
2022-10-11T19:31:24.868Z,101544.63
2022-10-11T19:33:51.741Z,101545.66
2022-10-11T19:36:18.361Z,101549.16
2022-10-11T19:38:48.267Z,101546.06
2022-10-11T19:41:17.569Z,101545.88
2022-10-11T19:43:45.079Z,101544.03
2022-10-11T19:46:20.172Z,101546.09
2022-10-11T19:48:54.343Z,101544.66
2022-10-11T19:51:26.296Z,101541.56
2022-10-11T19:53:59.962Z,101547.56
2022-10-11T19:56:28.587Z,101547.13
2022-10-11T19:58:55.135Z,101550.00
2022-10-11T20:01:25.168Z,101561.31
2022-10-11T20:04:03.942Z,101563.16
2022-10-11T20:06:37.205Z,101561.13
2022-10-11T20:09:28.072Z,101562.38
2022-10-11T20:11:52.449Z,101570.56
2022-10-11T20:14:18.970Z,101565.88
2022-10-11T20:16:45.425Z,101562.19
2022-10-11T20:19:11.915Z,101570.59
2022-10-11T20:21:38.564Z,101567.72
2022-10-11T20:24:06.888Z,101567.31
2022-10-11T20:26:34.283Z,101569.59
2022-10-11T20:29:00.860Z,101568.97
2022-10-11T20:31:33.221Z,101562.56
2022-10-11T20:34:02.372Z,101579.00
2022-10-11T20:36:30.168Z,101579.63
2022-10-11T20:38:58.597Z,101582.91
2022-10-11T20:41:33.412Z,101587.00
2022-10-11T20:44:01.202Z,101591.53
2022-10-11T20:46:29.966Z,101596.47
2022-10-11T20:49:01.841Z,101594.63
2022-10-11T20:51:30.380Z,101598.72
2022-10-11T20:53:57.156Z,101609.19
2022-10-11T20:56:23.972Z,101610.84
2022-10-11T20:58:52.657Z,101611.03
2022-10-11T21:01:21.681Z,101619.25
2022-10-11T21:03:48.414Z,101607.97
2022-10-11T21:06:14.832Z,101611.44
2022-10-11T21:08:41.913Z,101609.19
2022-10-11T21:11:09.438Z,101604.88
2022-10-11T21:13:36.859Z,101615.56
2022-10-11T21:16:14.535Z,101609.19
2022-10-11T21:18:41.874Z,101608.56
2022-10-11T21:21:10.568Z,101610.81
2022-10-11T21:23:37.679Z,101605.06
2022-10-11T21:26:06.426Z,101611.88
2022-10-11T21:28:33.076Z,101606.72
2022-10-11T21:31:08.166Z,101608.38
2022-10-11T21:33:35.576Z,101608.78
2022-10-11T21:36:12.788Z,101603.88
2022-10-11T21:38:39.763Z,101616.59
2022-10-11T21:41:08.760Z,101606.94
2022-10-11T21:43:35.978Z,101595.00
2022-10-11T21:46:14.642Z,101600.34
2022-10-11T21:48:41.332Z,101603.63
2022-10-11T21:51:15.251Z,101603.00
2022-10-11T21:53:41.809Z,101600.53
2022-10-11T21:56:08.648Z,101606.69
2022-10-11T21:58:35.172Z,101600.34
2022-10-11T22:01:01.726Z,101604.25
2022-10-11T22:03:28.206Z,101600.13
2022-10-11T22:05:54.759Z,101602.19
2022-10-11T22:08:21.542Z,101613.09
2022-10-11T22:10:56.656Z,101613.47
2022-10-11T22:13:24.611Z,101610.75
2022-10-11T22:15:51.489Z,101603.75
2022-10-11T22:18:18.115Z,101607.44
2022-10-11T22:20:44.707Z,101610.50
2022-10-11T22:23:11.642Z,101609.28
2022-10-11T22:25:39.134Z,101605.38
2022-10-11T22:28:06.681Z,101604.94
2022-10-11T22:30:33.428Z,101607.16
2022-10-11T22:33:00.097Z,101608.63
2022-10-11T22:35:26.675Z,101605.31
2022-10-11T22:37:53.254Z,101605.72
2022-10-11T22:40:20.244Z,101610.19
2022-10-11T22:42:46.875Z,101609.63
2022-10-11T22:45:13.359Z,101604.47
2022-10-11T22:47:39.822Z,101602.41
2022-10-11T22:50:06.506Z,101594.22
2022-10-11T22:52:33.038Z,101601.81
2022-10-11T22:54:59.553Z,101596.69
2022-10-11T22:57:26.006Z,101598.50
2022-10-11T22:59:52.472Z,101603.25
2022-10-11T23:02:18.973Z,101595.41
2022-10-11T23:04:45.422Z,101607.91
2022-10-11T23:07:11.888Z,101602.81
2022-10-11T23:09:38.368Z,101597.47
2022-10-11T23:12:05.034Z,101602.75
2022-10-11T23:14:31.587Z,101601.53
2022-10-11T23:16:58.042Z,101603.56
2022-10-11T23:19:24.529Z,101609.31
2022-10-11T23:21:51.042Z,101604.78
2022-10-11T23:24:17.511Z,101605.19
2022-10-11T23:26:43.977Z,101618.72
2022-10-11T23:29:10.523Z,101614.63
2022-10-11T23:31:37.006Z,101608.72
2022-10-11T23:34:03.534Z,101615.19
2022-10-11T23:36:30.025Z,101611.13
2022-10-11T23:38:58.387Z,101618.28
2022-10-11T23:41:27.233Z,101614.78
2022-10-11T23:43:54.326Z,101615.63
2022-10-11T23:46:21.348Z,101616.13
2022-10-11T23:48:48.213Z,101605.63
2022-10-11T23:51:15.046Z,101614.81
2022-10-11T23:53:41.573Z,101615.00
2022-10-11T23:56:09.748Z,101612.72
2022-10-11T23:58:36.557Z,101613.56
